Aktuální počasí v Česku a ve světě - METAR

Seznam meteostanic umístěných nejčasteji na letišti v ČR a ve světě

Vyhledat místa podle abecedy:
A B C D E F G H I J K L M N O P Q R S T U V W X Y Z

Filtrovat:

ID stanice:
a/nebo
Název místa (fulltext):
 
Místo (ID)Naposledy načteno 
Náměšť nad Oslavou (Namest n/O) 19.06.2021 15:00 UTC Zobrazit data
Místo: Náměšť nad Oslavou
Teplota: 29 °C (pocitová: 31.3 °C)
Vítr: 2 m/s z(e) 130°
Počasí: skorojasno
Dohlednost: 30 km
Zákl. oblačnosti: 1/8 1800 m
Vlhkost: 37%
N'Djamena (FTTJ) 19.06.2021 12:00 UTC Zobrazit METAR
FTTJ 191200Z 10009KT 100V190 8000 FEW040 36/21 Q1011 NOSIG
Nairobi (HKJK) 19.06.2021 15:00 UTC Zobrazit METAR
HKJK 191500Z 12011KT 9999 BKN024 21/14 Q1024 NOSIG
Nantes/ Atlantique (LFRS) 19.06.2021 15:00 UTC Zobrazit METAR
LFRS 191500Z AUTO 21007KT 160V250 9999 FEW024 23/16 Q1010 TEMPO 4500 SHRA BKN012 BKN020CB
Nassau (MYNN) 19.06.2021 15:00 UTC Zobrazit METAR
MYNN 191500Z 14012KT 9999 FEW018 SCT040 BKN080 31/25 A3012
Nauru (ANAU) Zatím nenačteno  
Nausori (NFNA) 19.06.2021 15:00 UTC Zobrazit METAR
NFNA 191500Z 33004KT 9999 FEW020 22/22 Q1013
New York (KNYC) 19.06.2021 14:51 UTC Zobrazit METAR
KNYC 191451Z AUTO VRB06KT 10SM CLR 26/19 A2979 RMK AO2 SLP077 T02610189 58006
Newcastle (EGNT) 19.06.2021 15:20 UTC Zobrazit METAR
EGNT 191520Z 10011KT 9999 FEW030 16/10 Q1014
Niamey (DRRN) 19.06.2021 15:00 UTC Zobrazit METAR
DRRN 191500Z 34007KT 280V030 CAVOK 35/18 Q1011 NOSIG
Nice/ Cote D'Azur (LFMN) 19.06.2021 15:00 UTC Zobrazit METAR
LFMN 191500Z 11015KT 9999 FEW015 BKN230 25/22 Q1015 NOSIG
Niue Island (NIUE) 19.06.2021 15:00 UTC Zobrazit METAR
NIUE 191500Z AUTO 12003KT // 20/20 Q1013
Nizhny Novgorod (UWGG) 13.10.2017 15:00 UTC Zobrazit METAR
UWGG 131500Z 9000 NSC 10/07 Q1006 R18R/290050 NOSIG RMK QFE747
North Caicos I. (MBNC) Zatím nenačteno  
Nouakchott (GQNN) 23.06.2016 11:00 UTC Zobrazit METAR
GQNN 231100Z 23009KT 180V250 7000 BKN010 25/18 Q1013 NOSIG
Noumea (NWWM) Zatím nenačteno  
Nuku'alofa (NFTF) 19.06.2021 15:00 UTC Zobrazit METAR
NFTF 191500Z 09004KT 9999 FEW009 22/21 Q1015
Reklama

Reklama


Newslettter

Počasí na Váš email

Emaily jsou bez reklamy a bez spamu



Odhlásit newsletter



Kontaktujte nás

Kontaktujte Slunečno.cz

Kontaktujte provozovatele Slunecno.cz

Další české internetové stránky (nejen) o počasí najdete v katalogu TOPlist - weby o počasí nebo vyhledejte na internetu, co jste tu na Počasí Slunečno Slunečnu zatím nenašli:
Přidat mezzi oblíbené stránkyPřidat Slunečno.cz do oblíbených | Nastavit jako HOMEPAGENastavit Slunečno.cz jako HOMEPAGE

Posunout stránku nahoru Posunout stránku nahoru Posunout stránku nahoru
Reklama